createdAt,value
2023-01-10T00:01:40.873Z,99107.09
2023-01-10T00:04:08.666Z,99112.31
2023-01-10T00:06:36.288Z,99108.75
2023-01-10T00:09:03.933Z,99112.22
2023-01-10T00:11:50.189Z,99111.31
2023-01-10T00:14:17.769Z,99105.16
2023-01-10T00:16:45.594Z,99107.78
2023-01-10T00:19:13.192Z,99104.38
2023-01-10T00:21:40.744Z,99100.94
2023-01-10T00:24:20.614Z,99099.19
2023-01-10T00:26:53.231Z,99103.53
2023-01-10T00:29:23.453Z,99089.91
2023-01-10T00:31:51.073Z,99097.50
2023-01-10T00:34:18.560Z,99097.50
2023-01-10T00:36:47.988Z,99090.69
2023-01-10T00:39:16.212Z,99099.19
2023-01-10T00:42:01.967Z,99096.56
2023-01-10T00:44:29.863Z,99093.91
2023-01-10T00:46:57.362Z,99101.72
2023-01-10T00:49:24.880Z,99119.13
2023-01-10T00:51:53.152Z,99121.88
2023-01-10T00:54:20.640Z,99125.25
2023-01-10T00:56:48.118Z,99141.78
2023-01-10T00:59:15.927Z,99148.72
2023-01-10T01:01:43.570Z,99141.91
2023-01-10T01:04:11.354Z,99149.59
2023-01-10T01:06:39.203Z,99145.13
2023-01-10T01:09:06.721Z,99152.03
2023-01-10T01:11:34.334Z,99160.78
2023-01-10T01:14:02.210Z,99152.19
2023-01-10T01:16:29.917Z,99167.63
2023-01-10T01:18:58.179Z,99170.22
2023-01-10T01:21:28.998Z,99164.91
2023-01-10T01:23:59.456Z,99171.91
2023-01-10T01:26:27.237Z,99175.34
2023-01-10T01:28:55.405Z,99176.19
2023-01-10T01:31:23.031Z,99159.00
2023-01-10T01:33:51.688Z,99159.78
2023-01-10T01:36:20.091Z,99149.59
2023-01-10T01:38:47.926Z,99156.41
2023-01-10T01:41:34.200Z,99144.44
2023-01-10T01:44:06.271Z,99158.25
2023-01-10T01:46:37.133Z,99145.59
2023-01-10T01:49:07.010Z,99151.41
2023-01-10T01:51:35.049Z,99147.97
2023-01-10T01:54:07.636Z,99135.16
2023-01-10T01:56:42.973Z,99137.63
2023-01-10T01:59:30.721Z,99136.75
2023-01-10T02:02:03.684Z,99135.00
2023-01-10T02:04:37.811Z,99131.47
2023-01-10T02:07:05.641Z,99131.47
2023-01-10T02:09:39.250Z,99116.13
2023-01-10T02:12:07.670Z,99123.81
2023-01-10T02:14:36.489Z,99122.13
2023-01-10T02:17:04.029Z,99130.78
2023-01-10T02:19:58.802Z,99132.59
2023-01-10T02:23:00.566Z,99128.31
2023-01-10T02:25:52.436Z,99142.19
2023-01-10T02:28:22.880Z,99148.41
2023-01-10T02:31:12.122Z,99150.09
2023-01-10T02:33:59.518Z,99143.12
2023-01-10T02:36:39.664Z,99143.12
2023-01-10T02:39:18.272Z,99149.13
2023-01-10T02:41:52.271Z,99157.78
2023-01-10T02:44:28.016Z,99148.25
2023-01-10T02:46:56.614Z,99142.19
2023-01-10T02:49:24.135Z,99136.12
2023-01-10T02:51:51.683Z,99148.06
2023-01-10T02:54:23.486Z,99137.63
2023-01-10T02:57:34.581Z,99131.47
2023-01-10T03:00:26.859Z,99147.87
2023-01-10T03:03:06.312Z,99155.66
2023-01-10T03:05:52.150Z,99156.47
2023-01-10T03:08:35.996Z,99151.28
2023-01-10T03:11:06.878Z,99152.94
2023-01-10T03:13:44.820Z,99150.25
2023-01-10T03:16:17.345Z,99150.34
2023-01-10T03:19:00.803Z,99154.72
2023-01-10T03:21:29.843Z,99145.91
2023-01-10T03:24:04.713Z,99153.88
2023-01-10T03:26:51.583Z,99157.09
2023-01-10T03:29:24.441Z,99153.56
2023-01-10T03:31:55.397Z,99161.56
2023-01-10T03:34:23.590Z,99150.47
2023-01-10T03:37:10.408Z,99141.53
2023-01-10T03:39:45.378Z,99137.22
2023-01-10T03:42:23.477Z,99140.69
2023-01-10T03:45:09.426Z,99135.53
2023-01-10T03:47:45.795Z,99132.22
2023-01-10T03:50:18.730Z,99138.94
2023-01-10T03:52:46.341Z,99144.56
2023-01-10T03:55:16.865Z,99146.97
2023-01-10T03:57:45.888Z,99160.16
2023-01-10T04:00:14.021Z,99153.41
2023-01-10T04:02:41.971Z,99162.19
2023-01-10T04:05:09.697Z,99164.81
2023-01-10T04:07:37.421Z,99163.00
2023-01-10T04:10:08.512Z,99182.62
2023-01-10T04:12:36.100Z,99169.66
2023-01-10T04:15:04.143Z,99150.72
2023-01-10T04:17:31.973Z,99140.41
2023-01-10T04:19:59.563Z,99149.25
2023-01-10T04:22:27.300Z,99173.41
2023-01-10T04:24:55.129Z,99170.87
2023-01-10T04:27:22.679Z,99172.28
2023-01-10T04:29:50.356Z,99158.97
2023-01-10T04:32:18.266Z,99153.47
2023-01-10T04:34:45.851Z,99147.50
2023-01-10T04:37:13.421Z,99153.84
2023-01-10T04:39:41.472Z,99168.72
2023-01-10T04:42:08.947Z,99165.97
2023-01-10T04:44:36.558Z,99170.94
2023-01-10T04:47:04.358Z,99173.56
2023-01-10T04:49:31.894Z,99167.97
2023-01-10T04:51:59.472Z,99168.03
2023-01-10T04:54:27.354Z,99184.38
2023-01-10T04:56:54.816Z,99190.53
2023-01-10T04:59:22.561Z,99195.59
2023-01-10T05:01:50.519Z,99201.44
2023-01-10T05:04:20.720Z,99212.56
2023-01-10T05:06:49.429Z,99222.06
2023-01-10T05:09:17.509Z,99226.03
2023-01-10T05:11:45.271Z,99229.84
2023-01-10T05:14:12.792Z,99241.59
2023-01-10T05:16:40.603Z,99246.75
2023-01-10T05:19:09.820Z,99253.50
2023-01-10T05:21:37.370Z,99255.22
2023-01-10T05:24:05.593Z,99268.78
2023-01-10T05:26:33.215Z,99264.63
2023-01-10T05:29:00.807Z,99263.03
2023-01-10T05:31:28.648Z,99254.03
2023-01-10T05:33:56.159Z,99238.81
2023-01-10T05:36:23.746Z,99241.84
2023-01-10T05:38:51.516Z,99247.63
2023-01-10T05:41:19.031Z,99258.75
2023-01-10T05:43:46.554Z,99254.47
2023-01-10T05:46:14.429Z,99262.34
2023-01-10T05:48:42.166Z,99255.56
2023-01-10T05:51:10.222Z,99246.06
2023-01-10T05:53:38.162Z,99258.25
2023-01-10T05:56:07.840Z,99253.47
2023-01-10T05:58:35.450Z,99260.38
2023-01-10T06:01:05.774Z,99260.38
2023-01-10T06:03:33.559Z,99258.88
2023-01-10T06:06:03.231Z,99277.13
2023-01-10T06:08:30.702Z,99278.53
2023-01-10T06:10:58.505Z,99291.28
2023-01-10T06:13:26.071Z,99303.84
2023-01-10T06:15:53.621Z,99310.47
2023-01-10T06:18:21.429Z,99326.53
2023-01-10T06:20:49.012Z,99328.06
2023-01-10T06:23:16.831Z,99311.28
2023-01-10T06:25:44.888Z,99309.97
2023-01-10T06:28:13.998Z,99322.13
2023-01-10T06:30:43.534Z,99320.56
2023-01-10T06:33:12.139Z,99327.88
2023-01-10T06:35:40.055Z,99343.94
2023-01-10T06:38:07.615Z,99354.22
2023-01-10T06:40:35.472Z,99360.41
2023-01-10T06:43:03.235Z,99356.16
2023-01-10T06:45:31.454Z,99371.03
2023-01-10T06:47:59.474Z,99386.59
2023-01-10T06:50:27.248Z,99395.41
2023-01-10T06:52:58.853Z,99391.87
2023-01-10T06:55:27.383Z,99377.81
2023-01-10T06:58:00.139Z,99388.16
2023-01-10T07:00:29.870Z,99387.94
2023-01-10T07:02:58.738Z,99388.34
2023-01-10T07:05:26.483Z,99384.81
2023-01-10T07:07:54.532Z,99389.19
2023-01-10T07:10:22.103Z,99396.25
2023-01-10T07:12:49.661Z,99412.66
2023-01-10T07:15:17.450Z,99412.59
2023-01-10T07:17:45.161Z,99421.19
2023-01-10T07:20:13.040Z,99429.69
2023-01-10T07:22:41.067Z,99445.13
2023-01-10T07:25:08.848Z,99443.34
2023-01-10T07:27:36.663Z,99451.69
2023-01-10T07:30:05.002Z,99464.59
2023-01-10T07:32:34.078Z,99456.06
2023-01-10T07:35:01.766Z,99449.72
2023-01-10T07:37:29.641Z,99461.84
2023-01-10T07:39:57.457Z,99480.81
2023-01-10T07:42:25.113Z,99472.03
2023-01-10T07:44:53.082Z,99479.84
2023-01-10T07:47:20.611Z,99494.69
2023-01-10T07:49:48.654Z,99505.06
2023-01-10T07:52:16.607Z,99508.56
2023-01-10T07:54:44.498Z,99516.06
2023-01-10T07:57:12.526Z,99515.03
2023-01-10T07:59:41.203Z,99514.69
2023-01-10T08:02:11.174Z,99525.97
2023-01-10T08:04:39.168Z,99526.25
2023-01-10T08:07:06.724Z,99519.78
2023-01-10T08:09:34.410Z,99521.34
2023-01-10T08:12:02.544Z,99526.06
2023-01-10T08:14:30.230Z,99542.22
2023-01-10T08:16:57.842Z,99545.16
2023-01-10T08:19:25.874Z,99559.13
2023-01-10T08:21:55.041Z,99556.94
2023-01-10T08:24:22.662Z,99559.66
2023-01-10T08:26:50.710Z,99567.78
2023-01-10T08:29:19.136Z,99583.56
2023-01-10T08:31:48.047Z,99578.12
2023-01-10T08:34:17.989Z,99579.69
2023-01-10T08:36:46.863Z,99584.25
2023-01-10T08:39:14.474Z,99600.59
2023-01-10T08:41:42.593Z,99603.50
2023-01-10T08:44:12.537Z,99617.91
2023-01-10T08:46:40.735Z,99620.44
2023-01-10T08:49:11.359Z,99622.00
2023-01-10T08:51:40.423Z,99615.62
2023-01-10T08:54:08.293Z,99616.47
2023-01-10T08:56:40.490Z,99621.63
2023-01-10T08:59:08.731Z,99638.19
2023-01-10T09:01:36.839Z,99637.13
2023-01-10T09:04:05.517Z,99629.78
2023-01-10T09:06:33.261Z,99638.13
2023-01-10T09:09:01.237Z,99645.03
2023-01-10T09:11:29.551Z,99637.00
2023-01-10T09:13:57.173Z,99643.75
2023-01-10T09:16:25.246Z,99638.34
2023-01-10T09:18:53.154Z,99635.56
2023-01-10T09:21:20.893Z,99647.25
2023-01-10T09:23:48.968Z,99654.53
2023-01-10T09:26:16.601Z,99661.03
2023-01-10T09:28:44.575Z,99672.09
2023-01-10T09:31:12.682Z,99657.97
2023-01-10T09:33:47.190Z,99665.19
2023-01-10T09:36:16.258Z,99669.34
2023-01-10T09:38:44.522Z,99668.84
2023-01-10T09:41:30.709Z,99673.84
2023-01-10T09:44:17.108Z,99680.94
2023-01-10T09:46:53.544Z,99678.25
2023-01-10T09:49:33.366Z,99676.50
2023-01-10T09:52:08.831Z,99668.72
2023-01-10T09:54:42.070Z,99671.53
2023-01-10T09:57:20.986Z,99678.25
2023-01-10T09:59:51.690Z,99685.03
2023-01-10T10:02:36.807Z,99682.44
2023-01-10T10:05:18.858Z,99691.25
2023-01-10T10:07:52.470Z,99707.62
2023-01-10T10:10:26.449Z,99698.69
2023-01-10T10:13:01.375Z,99694.56
2023-01-10T10:15:41.343Z,99693.88
2023-01-10T10:18:37.964Z,99698.16
2023-01-10T10:21:17.956Z,99696.53
2023-01-10T10:24:00.703Z,99691.94
2023-01-10T10:26:53.512Z,99692.94
2023-01-10T10:29:27.307Z,99696.19
2023-01-10T10:32:04.193Z,99705.34
2023-01-10T10:34:37.750Z,99700.88
2023-01-10T10:37:23.190Z,99704.56
2023-01-10T10:40:01.459Z,99703.59
2023-01-10T10:42:40.353Z,99700.38
2023-01-10T10:45:11.011Z,99698.50
2023-01-10T10:47:40.878Z,99704.94
2023-01-10T10:50:14.296Z,99702.25
2023-01-10T10:52:44.304Z,99709.78
2023-01-10T10:55:23.178Z,99712.59
2023-01-10T10:57:59.710Z,99715.28
2023-01-10T11:00:29.515Z,99708.00
2023-01-10T11:03:18.764Z,99713.31
2023-01-10T11:05:47.892Z,99708.47
2023-01-10T11:08:17.748Z,99707.59
2023-01-10T11:10:52.789Z,99708.12
2023-01-10T11:13:26.689Z,99713.44
2023-01-10T11:15:56.169Z,99716.88
2023-01-10T11:18:28.120Z,99727.72
2023-01-10T11:21:09.095Z,99725.72
2023-01-10T11:23:56.166Z,99722.09
2023-01-10T11:26:23.767Z,99724.97
2023-01-10T11:28:53.741Z,99723.03
2023-01-10T11:31:31.088Z,99722.09
2023-01-10T11:34:01.571Z,99725.09
2023-01-10T11:37:18.786Z,99727.94
2023-01-10T11:39:49.311Z,99727.50
2023-01-10T11:42:30.012Z,99727.44
2023-01-10T11:45:34.021Z,99734.81
2023-01-10T11:48:05.451Z,99731.25
2023-01-10T11:50:38.565Z,99727.81
2023-01-10T11:53:07.333Z,99725.72
2023-01-10T11:55:38.077Z,99731.09
2023-01-10T11:58:16.818Z,99728.84
2023-01-10T12:00:49.768Z,99731.97
2023-01-10T12:03:27.429Z,99729.78
2023-01-10T12:06:04.680Z,99731.25
2023-01-10T12:08:34.651Z,99745.06
2023-01-10T12:11:07.543Z,99743.88
2023-01-10T12:13:51.126Z,99758.28
2023-01-10T12:16:30.660Z,99752.97
2023-01-10T12:19:01.159Z,99758.00
2023-01-10T12:21:44.266Z,99753.62
2023-01-10T12:24:19.115Z,99761.12
2023-01-10T12:26:51.273Z,99753.81
2023-01-10T12:29:26.923Z,99766.28
2023-01-10T12:31:56.117Z,99768.03
2023-01-10T12:34:27.355Z,99764.84
2023-01-10T12:37:19.223Z,99775.34
2023-01-10T12:39:54.218Z,99785.53
2023-01-10T12:42:59.055Z,99790.03
2023-01-10T12:45:30.553Z,99803.19
2023-01-10T12:48:10.356Z,99808.22
2023-01-10T12:50:51.439Z,99807.50
2023-01-10T12:53:43.987Z,99817.34
2023-01-10T12:56:15.309Z,99820.06
2023-01-10T12:58:49.634Z,99821.53
2023-01-10T13:01:31.633Z,99811.09
2023-01-10T13:04:04.323Z,99817.91
2023-01-10T13:06:38.118Z,99819.91
2023-01-10T13:09:08.532Z,99823.31
2023-01-10T13:11:42.830Z,99811.94
2023-01-10T13:14:14.136Z,99815.28
2023-01-10T13:16:50.873Z,99824.00
2023-01-10T13:19:21.575Z,99832.84
2023-01-10T13:21:49.765Z,99842.25
2023-01-10T13:24:24.312Z,99844.03
2023-01-10T13:26:59.614Z,99847.56
2023-01-10T13:29:32.429Z,99852.25
2023-01-10T13:32:19.005Z,99862.38
2023-01-10T13:34:47.005Z,99868.38
2023-01-10T13:37:23.272Z,99874.50
2023-01-10T13:39:55.809Z,99872.53
2023-01-10T13:42:49.461Z,99881.09
2023-01-10T13:45:18.360Z,99888.06
2023-01-10T13:47:47.872Z,99889.41
2023-01-10T13:50:24.746Z,99898.69
2023-01-10T13:52:53.672Z,99896.81
2023-01-10T13:55:40.068Z,99904.59
2023-01-10T13:58:13.911Z,99902.03
2023-01-10T14:01:04.091Z,99906.25
2023-01-10T14:03:41.332Z,99914.91
2023-01-10T14:06:27.713Z,99910.53
2023-01-10T14:09:02.211Z,99914.00
2023-01-10T14:11:48.876Z,99913.88
2023-01-10T14:14:25.120Z,99927.78
2023-01-10T14:16:55.765Z,99930.47
2023-01-10T14:19:29.329Z,99938.34
2023-01-10T14:21:59.569Z,99941.78
2023-01-10T14:24:29.796Z,99950.53
2023-01-10T14:26:59.677Z,99957.31
2023-01-10T14:29:31.716Z,99960.03
2023-01-10T14:32:00.578Z,99974.72
2023-01-10T14:34:30.798Z,99983.44
2023-01-10T14:37:32.103Z,99981.78
2023-01-10T14:40:00.184Z,99993.09
2023-01-10T14:42:29.140Z,100004.56
2023-01-10T14:45:41.658Z,100012.28
2023-01-10T14:48:51.742Z,100015.75
2023-01-10T14:51:27.276Z,100021.13
2023-01-10T14:54:02.152Z,100020.22
2023-01-10T14:56:39.230Z,100014.34
2023-01-10T14:59:31.492Z,100020.44
2023-01-10T15:02:10.712Z,100021.25
2023-01-10T15:04:49.449Z,100032.59
2023-01-10T15:07:17.542Z,100028.41
2023-01-10T15:09:53.452Z,100030.09
2023-01-10T15:12:23.025Z,100048.38
2023-01-10T15:14:58.297Z,100048.56
2023-01-10T15:17:26.140Z,100061.50
2023-01-10T15:19:59.848Z,100066.00
2023-01-10T15:22:30.988Z,100070.41
2023-01-10T15:25:04.941Z,100072.41
2023-01-10T15:27:33.740Z,100073.12
2023-01-10T15:30:01.972Z,100077.72
2023-01-10T15:32:39.424Z,100083.78
2023-01-10T15:35:09.004Z,100079.84
2023-01-10T15:37:39.365Z,100095.34
2023-01-10T15:40:20.576Z,100099.78
2023-01-10T15:42:48.202Z,100094.56
2023-01-10T15:45:31.198Z,100103.25
2023-01-10T15:48:05.429Z,100103.00
2023-01-10T15:50:40.307Z,100106.19
2023-01-10T15:53:10.838Z,100118.69
2023-01-10T15:55:40.761Z,100123.75
2023-01-10T15:58:29.607Z,100120.50
2023-01-10T16:00:59.278Z,100126.47
2023-01-10T16:03:36.770Z,100135.16
2023-01-10T16:06:09.775Z,100126.56
2023-01-10T16:08:38.777Z,100131.72
2023-01-10T16:11:42.898Z,100145.00
2023-01-10T16:14:10.898Z,100154.38
2023-01-10T16:16:38.668Z,100152.50
2023-01-10T16:19:06.492Z,100161.12
2023-01-10T16:21:43.625Z,100168.84
2023-01-10T16:24:17.927Z,100175.41
2023-01-10T16:26:46.785Z,100191.72
2023-01-10T16:29:14.668Z,100195.19
2023-01-10T16:31:42.869Z,100190.16
2023-01-10T16:34:11.455Z,100204.88
2023-01-10T16:36:41.331Z,100205.22
2023-01-10T16:39:15.693Z,100212.09
2023-01-10T16:42:02.900Z,100221.66
2023-01-10T16:44:31.046Z,100215.09
2023-01-10T16:46:59.185Z,100209.84
2023-01-10T16:49:27.094Z,100222.72
2023-01-10T16:51:57.159Z,100224.50
2023-01-10T16:54:28.471Z,100229.84
2023-01-10T16:56:56.352Z,100227.03
2023-01-10T16:59:23.947Z,100240.16
2023-01-10T17:01:54.644Z,100242.41
2023-01-10T17:04:32.599Z,100251.81
2023-01-10T17:07:00.608Z,100259.84
2023-01-10T17:09:30.176Z,100255.50
2023-01-10T17:12:04.507Z,100253.19
2023-01-10T17:14:36.571Z,100260.78
2023-01-10T17:17:04.738Z,100256.69
2023-01-10T17:19:32.660Z,100268.75
2023-01-10T17:22:00.561Z,100274.94
2023-01-10T17:24:29.924Z,100274.94
2023-01-10T17:26:57.771Z,100279.28
2023-01-10T17:29:25.721Z,100277.78
2023-01-10T17:31:53.462Z,100289.84
2023-01-10T17:34:21.300Z,100288.97
2023-01-10T17:36:48.877Z,100294.44
2023-01-10T17:39:23.471Z,100296.91
2023-01-10T17:41:51.422Z,100304.78
2023-01-10T17:44:18.947Z,100304.00
2023-01-10T17:46:46.558Z,100312.66
2023-01-10T17:49:14.748Z,100310.06
2023-01-10T17:51:42.439Z,100310.97
2023-01-10T17:54:09.971Z,100320.69
2023-01-10T17:56:37.785Z,100321.47
2023-01-10T17:59:05.709Z,100325.91
2023-01-10T18:01:33.790Z,100327.69
2023-01-10T18:04:01.825Z,100330.28
2023-01-10T18:06:29.368Z,100322.59
2023-01-10T18:08:56.962Z,100330.41
2023-01-10T18:11:25.325Z,100327.69
2023-01-10T18:13:53.123Z,100332.88
2023-01-10T18:16:21.189Z,100350.22
2023-01-10T18:18:49.175Z,100341.50
2023-01-10T18:21:19.172Z,100341.53
2023-01-10T18:23:47.727Z,100348.31
2023-01-10T18:26:15.738Z,100347.41
2023-01-10T18:28:44.688Z,100342.25
2023-01-10T18:31:17.661Z,100359.44
2023-01-10T18:33:46.804Z,100355.87
2023-01-10T18:36:22.399Z,100369.16
2023-01-10T18:38:51.599Z,100361.34
2023-01-10T18:41:20.818Z,100370.81
2023-01-10T18:43:48.765Z,100371.00
2023-01-10T18:46:21.597Z,100377.97
2023-01-10T18:48:52.597Z,100387.69
2023-01-10T18:51:22.649Z,100396.63
2023-01-10T18:53:52.904Z,100392.38
2023-01-10T18:56:21.175Z,100392.41
2023-01-10T18:58:48.817Z,100396.81
2023-01-10T19:01:18.933Z,100403.81
2023-01-10T19:03:47.645Z,100407.50
2023-01-10T19:06:16.784Z,100416.94
2023-01-10T19:08:46.044Z,100407.56
2023-01-10T19:11:16.117Z,100424.84
2023-01-10T19:13:45.480Z,100415.38
2023-01-10T19:16:14.282Z,100424.97
2023-01-10T19:18:43.084Z,100430.94
2023-01-10T19:21:17.249Z,100421.38
2023-01-10T19:23:47.595Z,100435.19
2023-01-10T19:26:15.635Z,100443.06
2023-01-10T19:28:44.567Z,100448.16
2023-01-10T19:31:24.547Z,100447.31
2023-01-10T19:33:52.673Z,100452.50
2023-01-10T19:36:22.729Z,100453.41
2023-01-10T19:38:55.925Z,100462.94
2023-01-10T19:41:28.630Z,100468.16
2023-01-10T19:43:57.992Z,100467.28
2023-01-10T19:46:26.917Z,100471.56
2023-01-10T19:48:58.505Z,100474.09
2023-01-10T19:51:26.377Z,100476.75
2023-01-10T19:53:53.951Z,100482.88
2023-01-10T19:56:23.088Z,100481.06
2023-01-10T19:58:51.312Z,100486.41
2023-01-10T20:01:23.369Z,100490.56
2023-01-10T20:03:51.994Z,100507.84
2023-01-10T20:06:21.851Z,100502.81
2023-01-10T20:08:49.626Z,100490.75
2023-01-10T20:11:19.112Z,100495.09
2023-01-10T20:13:48.328Z,100505.59
2023-01-10T20:16:21.437Z,100506.56
2023-01-10T20:18:49.918Z,100512.66
2023-01-10T20:21:18.559Z,100506.56
2023-01-10T20:23:46.569Z,100509.19
2023-01-10T20:26:23.097Z,100508.22
2023-01-10T20:28:50.777Z,100505.72
2023-01-10T20:31:24.108Z,100503.94
2023-01-10T20:33:51.811Z,100504.81
2023-01-10T20:36:22.231Z,100503.97
2023-01-10T20:38:50.487Z,100507.59
2023-01-10T20:41:21.714Z,100517.97
2023-01-10T20:43:49.918Z,100513.59
2023-01-10T20:46:24.427Z,100520.56
2023-01-10T20:48:53.809Z,100517.94
2023-01-10T20:51:24.338Z,100526.66
2023-01-10T20:53:52.206Z,100532.72
2023-01-10T20:56:23.272Z,100525.75
2023-01-10T20:58:51.620Z,100524.94
2023-01-10T21:01:33.220Z,100523.38
2023-01-10T21:04:02.369Z,100523.34
2023-01-10T21:06:30.346Z,100521.66
2023-01-10T21:08:57.938Z,100524.34
2023-01-10T21:11:25.869Z,100517.38
2023-01-10T21:13:54.075Z,100521.66
2023-01-10T21:16:22.563Z,100520.84
2023-01-10T21:18:50.816Z,100527.66
2023-01-10T21:21:22.626Z,100526.03
2023-01-10T21:23:50.499Z,100518.22
2023-01-10T21:26:18.379Z,100520.72
2023-01-10T21:28:49.378Z,100521.66
2023-01-10T21:31:19.708Z,100506.97
2023-01-10T21:33:49.174Z,100516.44
2023-01-10T21:36:17.595Z,100510.38
2023-01-10T21:38:45.261Z,100506.84
2023-01-10T21:41:35.186Z,100518.97
2023-01-10T21:44:03.809Z,100510.44
2023-01-10T21:46:31.987Z,100524.34
2023-01-10T21:49:04.306Z,100528.50
2023-01-10T21:51:32.276Z,100527.66
2023-01-10T21:53:59.994Z,100531.16
2023-01-10T21:56:28.464Z,100521.59
2023-01-10T21:58:56.374Z,100523.38
2023-01-10T22:01:24.032Z,100524.22
2023-01-10T22:03:52.021Z,100514.69
2023-01-10T22:06:19.637Z,100523.38
2023-01-10T22:08:47.362Z,100525.88
2023-01-10T22:11:15.305Z,100524.94
2023-01-10T22:13:42.862Z,100518.87
2023-01-10T22:16:10.686Z,100524.06
2023-01-10T22:18:38.573Z,100523.28
2023-01-10T22:21:06.238Z,100517.00
2023-01-10T22:23:34.713Z,100531.81
2023-01-10T22:26:04.937Z,100524.94
2023-01-10T22:28:33.228Z,100527.50
2023-01-10T22:31:01.413Z,100534.44
2023-01-10T22:33:30.723Z,100533.69
2023-01-10T22:36:05.435Z,100539.63
2023-01-10T22:38:34.204Z,100529.28
2023-01-10T22:41:16.354Z,100536.06
2023-01-10T22:43:44.723Z,100539.53
2023-01-10T22:46:16.186Z,100530.06
2023-01-10T22:48:44.573Z,100523.97
2023-01-10T22:51:13.745Z,100542.94
2023-01-10T22:53:41.659Z,100543.78
2023-01-10T22:56:10.794Z,100551.66
2023-01-10T22:58:38.384Z,100559.47
2023-01-10T23:01:06.943Z,100554.25
2023-01-10T23:03:34.860Z,100561.28
2023-01-10T23:06:02.552Z,100557.78
2023-01-10T23:08:30.054Z,100560.38
2023-01-10T23:10:57.912Z,100568.19
2023-01-10T23:13:25.879Z,100563.03
2023-01-10T23:16:01.743Z,100557.09
2023-01-10T23:18:30.312Z,100561.38
2023-01-10T23:20:58.075Z,100557.09
2023-01-10T23:23:26.525Z,100557.12
2023-01-10T23:26:03.777Z,100557.09
2023-01-10T23:28:33.622Z,100549.34
2023-01-10T23:31:02.107Z,100541.63
2023-01-10T23:33:29.672Z,100551.19
2023-01-10T23:35:57.200Z,100553.81
2023-01-10T23:38:25.159Z,100542.59
2023-01-10T23:40:52.751Z,100543.56
2023-01-10T23:43:20.555Z,100548.69
2023-01-10T23:45:48.366Z,100559.16
2023-01-10T23:48:16.106Z,100559.19
2023-01-10T23:50:43.639Z,100562.69
2023-01-10T23:53:11.879Z,100560.06
2023-01-10T23:55:39.432Z,100573.84
2023-01-10T23:58:07.382Z,100583.31
